createdAt,value
2018-03-16T00:00:54.445Z,1024.06
2018-03-16T00:01:54.431Z,1024.04
2018-03-16T00:02:54.418Z,1024.24
2018-03-16T00:03:54.403Z,1024.25
2018-03-16T00:04:54.390Z,1023.99
2018-03-16T00:05:54.376Z,1024.13
2018-03-16T00:06:54.364Z,1024.01
2018-03-16T00:07:54.352Z,1024.03
2018-03-16T00:08:54.337Z,1024.01
2018-03-16T00:09:54.323Z,1024.06
2018-03-16T00:10:54.310Z,1023.99
2018-03-16T00:11:54.296Z,1024.01
2018-03-16T00:12:54.282Z,1024.04
2018-03-16T00:13:54.270Z,1024.02
2018-03-16T00:14:54.256Z,1024.17
2018-03-16T00:15:54.245Z,1024.12
2018-03-16T00:16:54.228Z,1024.13
2018-03-16T00:17:54.217Z,1024.12
2018-03-16T00:18:54.203Z,1024.07
2018-03-16T00:19:54.188Z,1024.11
2018-03-16T00:20:54.174Z,1024.17
2018-03-16T00:21:54.162Z,1024.04
2018-03-16T00:22:54.149Z,1024.06
2018-03-16T00:23:54.135Z,1024.09
2018-03-16T00:24:54.121Z,1023.95
2018-03-16T00:25:54.108Z,1023.99
2018-03-16T00:26:54.093Z,1023.92
2018-03-16T00:27:54.080Z,1023.96
2018-03-16T00:28:54.066Z,1023.93
2018-03-16T00:29:54.054Z,1023.95
2018-03-16T00:30:54.039Z,1024.04
2018-03-16T00:31:54.027Z,1023.91
2018-03-16T00:32:54.013Z,1023.94
2018-03-16T00:33:54.002Z,1023.96
2018-03-16T00:34:53.987Z,1023.91
2018-03-16T00:35:53.973Z,1024.04
2018-03-16T00:36:53.959Z,1023.93
2018-03-16T00:37:53.946Z,1023.92
2018-03-16T00:38:53.935Z,1023.94
2018-03-16T00:39:53.928Z,1024.03
2018-03-16T00:40:53.906Z,1023.93
2018-03-16T00:41:53.892Z,1023.91
2018-03-16T00:42:53.879Z,1023.91
2018-03-16T00:43:53.865Z,1023.93
2018-03-16T00:44:53.851Z,1023.9
2018-03-16T00:45:53.840Z,1024
2018-03-16T00:46:53.824Z,1023.95
2018-03-16T00:47:53.811Z,1023.96
2018-03-16T00:48:53.802Z,1024.02
2018-03-16T00:49:53.784Z,1024.17
2018-03-16T00:50:53.773Z,1024.08
2018-03-16T00:51:53.758Z,1024
2018-03-16T00:52:53.743Z,1024.18
2018-03-16T00:53:53.730Z,1024.14
2018-03-16T00:54:53.723Z,1024.02
2018-03-16T00:55:53.714Z,1024.05
2018-03-16T00:56:53.690Z,1024.09
2018-03-16T00:57:53.675Z,1024.18
2018-03-16T00:58:53.663Z,1024.14
2018-03-16T00:59:53.649Z,1024.05
2018-03-16T01:00:53.635Z,1024.06
2018-03-16T01:01:53.630Z,1024.05
2018-03-16T01:02:53.608Z,1024.09
2018-03-16T01:03:53.593Z,1024
2018-03-16T01:04:53.580Z,1024.03
2018-03-16T01:05:53.570Z,1024.07
2018-03-16T01:06:53.552Z,1024
2018-03-16T01:07:53.538Z,1024.1
2018-03-16T01:08:53.526Z,1024.01
2018-03-16T01:09:53.512Z,1024
2018-03-16T01:10:53.504Z,1023.93
2018-03-16T01:11:53.484Z,1023.87
2018-03-16T01:12:53.472Z,1023.97
2018-03-16T01:13:53.457Z,1023.87
2018-03-16T01:14:53.443Z,1023.8
2018-03-16T01:15:53.429Z,1023.81
2018-03-16T01:16:53.417Z,1023.79
2018-03-16T01:17:53.402Z,1023.78
2018-03-16T01:18:53.389Z,1023.76
2018-03-16T01:19:53.376Z,1023.79
2018-03-16T01:20:53.362Z,1023.81
2018-03-16T01:21:53.348Z,1023.83
2018-03-16T01:22:53.336Z,1023.85
2018-03-16T01:23:53.320Z,1023.84
2018-03-16T01:24:53.307Z,1023.81
2018-03-16T01:25:53.303Z,1023.88
2018-03-16T01:26:53.280Z,1023.84
2018-03-16T01:27:53.267Z,1023.88
2018-03-16T01:28:53.253Z,1023.93
2018-03-16T01:29:53.246Z,1023.81
2018-03-16T01:30:53.225Z,1023.92
2018-03-16T01:31:53.211Z,1023.94
2018-03-16T01:32:53.251Z,1023.89
2018-03-16T01:33:53.185Z,1023.87
2018-03-16T01:34:53.172Z,1023.84
2018-03-16T01:35:53.157Z,1023.91
2018-03-16T01:36:53.145Z,1023.95
2018-03-16T01:37:53.130Z,1023.92
2018-03-16T01:38:53.115Z,1023.98
2018-03-16T01:39:53.101Z,1023.91
2018-03-16T01:40:53.090Z,1023.95
2018-03-16T01:41:53.080Z,1024
2018-03-16T01:42:53.090Z,1024.03
2018-03-16T01:43:53.048Z,1024.01
2018-03-16T01:44:53.036Z,1023.99
2018-03-16T01:45:53.022Z,1023.98
2018-03-16T01:46:53.007Z,1024.04
2018-03-16T01:47:52.992Z,1023.94
2018-03-16T01:48:52.979Z,1024.03
2018-03-16T01:49:52.966Z,1023.99
2018-03-16T01:50:52.952Z,1024.09
2018-03-16T01:51:52.938Z,1024.06
2018-03-16T01:52:52.932Z,1024.08
2018-03-16T01:53:52.911Z,1024.07
2018-03-16T01:54:52.898Z,1024.05
2018-03-16T01:55:52.883Z,1024.1
2018-03-16T01:56:52.871Z,1024.16
2018-03-16T01:57:52.861Z,1024.07
2018-03-16T01:58:52.843Z,1024.08
2018-03-16T01:59:52.837Z,1024.01
2018-03-16T02:00:52.815Z,1024.07
2018-03-16T02:01:52.802Z,1024.01
2018-03-16T02:02:52.788Z,1023.97
2018-03-16T02:03:52.774Z,1024.09
2018-03-16T02:04:52.761Z,1024.03
2018-03-16T02:05:52.747Z,1023.96
2018-03-16T02:06:52.734Z,1024.01
2018-03-16T02:07:52.720Z,1023.92
2018-03-16T02:08:52.707Z,1024.15
2018-03-16T02:09:52.696Z,1024.07
2018-03-16T02:10:52.678Z,1024.04
2018-03-16T02:11:52.666Z,1024.04
2018-03-16T02:12:52.653Z,1024.06
2018-03-16T02:13:52.638Z,1023.99
2018-03-16T02:14:52.623Z,1024.02
2018-03-16T02:15:52.610Z,1024.04
2018-03-16T02:16:52.597Z,1024.12
2018-03-16T02:17:52.585Z,1024.03
2018-03-16T02:18:52.569Z,1024.01
2018-03-16T02:19:52.554Z,1024.25
2018-03-16T02:20:52.541Z,1024.05
2018-03-16T02:21:52.528Z,1024.04
2018-03-16T02:22:52.513Z,1024.05
2018-03-16T02:23:52.499Z,1024.05
2018-03-16T02:24:52.487Z,1024.06
2018-03-16T02:25:52.472Z,1024.03
2018-03-16T02:26:52.460Z,1024.09
2018-03-16T02:27:52.444Z,1024
2018-03-16T02:28:52.432Z,1024.02
2018-03-16T02:29:52.419Z,1024
2018-03-16T02:30:52.403Z,1024.08
2018-03-16T02:31:52.390Z,1024.17
2018-03-16T02:32:52.377Z,1024.08
2018-03-16T02:33:52.362Z,1024.05
2018-03-16T02:34:52.348Z,1024.07
2018-03-16T02:35:52.335Z,1024.06
2018-03-16T02:36:52.320Z,1024.01
2018-03-16T02:37:52.306Z,1024.03
2018-03-16T02:38:52.292Z,1023.98
2018-03-16T02:39:52.278Z,1023.96
2018-03-16T02:40:52.270Z,1024.02
2018-03-16T02:41:52.248Z,1024
2018-03-16T02:42:52.236Z,1024.1
2018-03-16T02:43:52.223Z,1023.92
2018-03-16T02:44:52.215Z,1023.95
2018-03-16T02:45:52.196Z,1024.08
2018-03-16T02:46:52.181Z,1023.95
2018-03-16T02:47:52.167Z,1023.91
2018-03-16T02:48:52.154Z,1023.91
2018-03-16T02:49:52.139Z,1024.06
2018-03-16T02:50:52.171Z,1024.15
2018-03-16T02:51:52.112Z,1023.99
2018-03-16T02:52:52.097Z,1024.16
2018-03-16T02:53:52.083Z,1024.1
2018-03-16T02:54:52.069Z,1024.04
2018-03-16T02:55:52.056Z,1024.14
2018-03-16T02:56:52.040Z,1024.19
2018-03-16T02:57:52.026Z,1024.13
2018-03-16T02:58:52.013Z,1024.16
2018-03-16T02:59:52.000Z,1024.21
2018-03-16T03:00:51.985Z,1024.39
2018-03-16T03:01:51.972Z,1024.17
2018-03-16T03:02:51.957Z,1024.37
2018-03-16T03:03:51.942Z,1024.24
2018-03-16T03:04:51.931Z,1024.22
2018-03-16T03:05:51.914Z,1024.28
2018-03-16T03:06:51.911Z,1024.34
2018-03-16T03:07:51.885Z,1024.31
2018-03-16T03:08:51.872Z,1024.41
2018-03-16T03:09:51.858Z,1024.34
2018-03-16T03:10:51.844Z,1024.3
2018-03-16T03:11:51.829Z,1024.29
2018-03-16T03:12:51.816Z,1024.47
2018-03-16T03:13:51.801Z,1024.33
2018-03-16T03:14:51.786Z,1024.32
2018-03-16T03:15:51.778Z,1024.33
2018-03-16T03:16:51.759Z,1024.34
2018-03-16T03:17:51.744Z,1024.27
2018-03-16T03:18:51.730Z,1024.36
2018-03-16T03:19:51.716Z,1024.29
2018-03-16T03:20:51.702Z,1024.4
2018-03-16T03:21:51.690Z,1024.37
2018-03-16T03:22:51.674Z,1024.33
2018-03-16T03:23:51.661Z,1024.38
2018-03-16T03:24:51.647Z,1024.31
2018-03-16T03:25:51.631Z,1024.33
2018-03-16T03:26:51.618Z,1024.51
2018-03-16T03:27:51.604Z,1024.35
2018-03-16T03:28:51.590Z,1024.3
2018-03-16T03:29:51.576Z,1024.37
2018-03-16T03:30:51.562Z,1024.47
2018-03-16T03:31:51.548Z,1024.36
2018-03-16T03:32:51.535Z,1024.49
2018-03-16T03:33:51.519Z,1024.41
2018-03-16T03:34:51.506Z,1024.39
2018-03-16T03:35:51.493Z,1024.42
2018-03-16T03:36:51.481Z,1024.37
2018-03-16T03:37:51.463Z,1024.41
2018-03-16T03:38:51.450Z,1024.32
2018-03-16T03:39:51.435Z,1024.33
2018-03-16T03:40:51.420Z,1024.4
2018-03-16T03:41:51.407Z,1024.28
2018-03-16T03:42:51.392Z,1024.3
2018-03-16T03:43:51.379Z,1024.4
2018-03-16T03:44:51.365Z,1024.35
2018-03-16T03:45:51.355Z,1024.32
2018-03-16T03:46:51.338Z,1024.24
2018-03-16T03:47:51.324Z,1024.27
2018-03-16T03:48:51.309Z,1024.3
2018-03-16T03:49:51.296Z,1024.22
2018-03-16T03:50:51.282Z,1024.2
2018-03-16T03:51:51.267Z,1024.15
2018-03-16T03:52:51.253Z,1024.11
2018-03-16T03:53:51.248Z,1024.14
2018-03-16T03:54:51.225Z,1024.07
2018-03-16T03:55:51.209Z,1024.03
2018-03-16T03:56:51.202Z,1024.03
2018-03-16T03:57:51.182Z,1024.13
2018-03-16T03:58:51.167Z,1024.06
2018-03-16T03:59:51.154Z,1024.1
2018-03-16T04:00:51.139Z,1024.11
2018-03-16T04:01:51.127Z,1024.12
2018-03-16T04:02:51.112Z,1024.11
2018-03-16T04:03:51.099Z,1024.1
2018-03-16T04:04:51.083Z,1024.09
2018-03-16T04:05:51.127Z,1024.15
2018-03-16T04:06:51.055Z,1024.14
2018-03-16T04:07:51.042Z,1024.05
2018-03-16T04:08:51.028Z,1024.08
2018-03-16T04:09:51.014Z,1024
2018-03-16T04:10:50.999Z,1024.12
2018-03-16T04:11:50.985Z,1024.02
2018-03-16T04:12:50.971Z,1023.94
2018-03-16T04:13:50.957Z,1024.02
2018-03-16T04:14:50.966Z,1024.02
2018-03-16T04:15:50.929Z,1024.02
2018-03-16T04:16:50.918Z,1024.07
2018-03-16T04:17:50.900Z,1024.06
2018-03-16T04:18:50.886Z,1024.12
2018-03-16T04:19:50.871Z,1024.05
2018-03-16T04:20:50.865Z,1024.13
2018-03-16T04:21:50.843Z,1024.09
2018-03-16T04:22:50.832Z,1024.08
2018-03-16T04:23:50.816Z,1024.06
2018-03-16T04:24:50.802Z,1024.07
2018-03-16T04:25:50.790Z,1024.06
2018-03-16T04:26:50.773Z,1024.11
2018-03-16T04:27:50.757Z,1024.06
2018-03-16T04:28:50.744Z,1024.12
2018-03-16T04:29:50.729Z,1024.07
2018-03-16T04:30:50.716Z,1024.15
2018-03-16T04:31:50.701Z,1024.08
2018-03-16T04:32:50.687Z,1024.1
2018-03-16T04:33:50.678Z,1024.12
2018-03-16T04:34:50.660Z,1024.07
2018-03-16T04:35:50.645Z,1024.13
2018-03-16T04:36:50.631Z,1024.12
2018-03-16T04:37:50.617Z,1024.24
2018-03-16T04:38:50.601Z,1024.18
2018-03-16T04:39:50.591Z,1024.27
2018-03-16T04:40:50.576Z,1024.22
2018-03-16T04:41:50.560Z,1024.23
2018-03-16T04:42:50.549Z,1024.17
2018-03-16T04:43:50.531Z,1024.16
2018-03-16T04:44:50.516Z,1024.18
2018-03-16T04:45:50.503Z,1024.2
2018-03-16T04:46:50.488Z,1024.26
2018-03-16T04:47:50.474Z,1024.28
2018-03-16T04:48:50.460Z,1024.28
2018-03-16T04:49:50.444Z,1024.38
2018-03-16T04:50:50.431Z,1024.33
2018-03-16T04:51:50.419Z,1024.36
2018-03-16T04:52:50.403Z,1024.35
2018-03-16T04:53:50.387Z,1024.31
2018-03-16T04:54:50.373Z,1024.48
2018-03-16T04:55:50.361Z,1024.32
2018-03-16T04:56:50.345Z,1024.32
2018-03-16T04:57:50.331Z,1024.4
2018-03-16T04:58:50.316Z,1024.35
2018-03-16T04:59:50.308Z,1024.23
2018-03-16T05:00:50.288Z,1024.4
2018-03-16T05:01:50.278Z,1024.3
2018-03-16T05:02:50.258Z,1024.38
2018-03-16T05:03:50.250Z,1024.49
2018-03-16T05:04:50.230Z,1024.34
2018-03-16T05:05:50.220Z,1024.45
2018-03-16T05:06:50.202Z,1024.44
2018-03-16T05:07:50.187Z,1024.31
2018-03-16T05:08:50.173Z,1024.32
2018-03-16T05:09:50.159Z,1024.35
2018-03-16T05:10:50.149Z,1024.28
2018-03-16T05:11:50.134Z,1024.27
2018-03-16T05:12:50.115Z,1024.35
2018-03-16T05:13:50.101Z,1024.35
2018-03-16T05:14:50.087Z,1024.35
2018-03-16T05:15:50.073Z,1024.35
2018-03-16T05:16:50.064Z,1024.34
2018-03-16T05:17:50.045Z,1024.3
2018-03-16T05:18:50.034Z,1024.38
2018-03-16T05:19:50.016Z,1024.39
2018-03-16T05:20:50.009Z,1024.46
2018-03-16T05:21:49.987Z,1024.48
2018-03-16T05:22:49.973Z,1024.26
2018-03-16T05:23:49.957Z,1024.63
2018-03-16T05:24:49.944Z,1024.31
2018-03-16T05:25:49.929Z,1024.75
2018-03-16T05:26:49.913Z,1024.29
2018-03-16T05:27:49.899Z,1024.41
2018-03-16T05:28:49.884Z,1024.43
2018-03-16T05:29:49.872Z,1024.37
2018-03-16T05:30:49.855Z,1024.44
2018-03-16T05:31:49.842Z,1024.36
2018-03-16T05:32:49.826Z,1024.39
2018-03-16T05:33:49.811Z,1024.44
2018-03-16T05:34:49.797Z,1024.38
2018-03-16T05:35:49.783Z,1024.43
2018-03-16T05:36:49.770Z,1024.47
2018-03-16T05:37:49.753Z,1024.39
2018-03-16T05:38:49.739Z,1024.74
2018-03-16T05:39:49.726Z,1024.38
2018-03-16T05:40:49.713Z,1024.52
2018-03-16T05:41:49.696Z,1024.5
2018-03-16T05:42:49.682Z,1024.45
2018-03-16T05:43:49.668Z,1024.52
2018-03-16T05:44:49.651Z,1024.64
2018-03-16T05:45:49.640Z,1024.58
2018-03-16T05:46:49.626Z,1024.54
2018-03-16T05:47:49.607Z,1024.59
2018-03-16T05:48:49.592Z,1024.56
2018-03-16T05:49:49.580Z,1024.61
2018-03-16T05:50:49.568Z,1024.58
2018-03-16T05:51:49.550Z,1024.52
2018-03-16T05:52:49.534Z,1024.47
2018-03-16T05:53:49.522Z,1024.47
2018-03-16T05:54:49.511Z,1024.51
2018-03-16T05:55:49.495Z,1024.73
2018-03-16T05:56:49.476Z,1024.67
2018-03-16T05:57:49.461Z,1024.54
2018-03-16T05:58:49.449Z,1024.71
2018-03-16T05:59:49.433Z,1024.78
2018-03-16T06:00:49.472Z,1024.77
2018-03-16T06:01:49.404Z,1024.7
2018-03-16T06:02:49.389Z,1024.72
2018-03-16T06:03:49.374Z,1024.79
2018-03-16T06:04:49.360Z,1024.83
2018-03-16T06:05:49.348Z,1024.82
2018-03-16T06:06:49.330Z,1024.78
2018-03-16T06:07:49.316Z,1024.78
2018-03-16T06:08:49.301Z,1024.74
2018-03-16T06:09:49.286Z,1024.84
2018-03-16T06:10:49.272Z,1025.06
2018-03-16T06:11:49.257Z,1024.78
2018-03-16T06:12:49.243Z,1024.72
2018-03-16T06:13:49.228Z,1024.79
2018-03-16T06:14:49.213Z,1024.73
2018-03-16T06:15:49.198Z,1024.76
2018-03-16T06:16:49.185Z,1024.72
2018-03-16T06:17:49.169Z,1024.77
2018-03-16T06:18:49.154Z,1024.76
2018-03-16T06:19:49.140Z,1024.8
2018-03-16T06:20:49.124Z,1024.83
2018-03-16T06:21:49.110Z,1024.77
2018-03-16T06:22:49.094Z,1024.72
2018-03-16T06:23:49.085Z,1024.81
2018-03-16T06:24:49.065Z,1024.76
2018-03-16T06:25:49.057Z,1024.8
2018-03-16T06:26:49.040Z,1024.8
2018-03-16T06:27:49.028Z,1024.7
2018-03-16T06:28:49.007Z,1024.79
2018-03-16T06:29:48.992Z,1024.69
2018-03-16T06:30:48.976Z,1024.7
2018-03-16T06:31:48.962Z,1024.7
2018-03-16T06:32:48.948Z,1024.83
2018-03-16T06:33:48.932Z,1024.66
2018-03-16T06:34:48.918Z,1024.67
2018-03-16T06:35:48.903Z,1024.61
2018-03-16T06:36:48.889Z,1024.49
2018-03-16T06:37:48.875Z,1024.6
2018-03-16T06:38:48.858Z,1024.94
2018-03-16T06:39:48.845Z,1024.53
2018-03-16T06:40:48.830Z,1024.74
2018-03-16T06:41:48.815Z,1024.57
2018-03-16T06:42:49.051Z,1024.87
2018-03-16T06:43:48.786Z,1024.7
2018-03-16T06:44:48.912Z,1024.61
2018-03-16T06:45:48.755Z,1024.67
2018-03-16T06:46:48.740Z,1024.57
2018-03-16T06:47:48.726Z,1024.72
2018-03-16T06:48:48.712Z,1024.75
2018-03-16T06:49:48.697Z,1024.61
2018-03-16T06:50:48.684Z,1024.67
2018-03-16T06:51:48.667Z,1024.66
2018-03-16T06:52:48.652Z,1024.7
2018-03-16T06:53:48.638Z,1024.69
2018-03-16T06:54:48.629Z,1024.74
2018-03-16T06:55:48.609Z,1024.64
2018-03-16T06:56:48.595Z,1024.6
2018-03-16T06:57:48.580Z,1024.6
2018-03-16T06:58:48.566Z,1024.62
2018-03-16T06:59:48.551Z,1024.6
2018-03-16T07:00:48.537Z,1024.61
2018-03-16T07:01:48.523Z,1024.71
2018-03-16T07:02:48.506Z,1025.04
2018-03-16T07:03:48.493Z,1024.84
2018-03-16T07:04:48.480Z,1024.62
2018-03-16T07:05:48.462Z,1024.54
2018-03-16T07:06:48.447Z,1024.73
2018-03-16T07:07:48.432Z,1024.7
2018-03-16T07:08:48.419Z,1024.73
2018-03-16T07:09:48.404Z,1024.81
2018-03-16T07:10:48.390Z,1024.7
2018-03-16T07:11:48.374Z,1024.71
2018-03-16T07:12:48.361Z,1024.74
2018-03-16T07:13:48.344Z,1024.68
2018-03-16T07:14:48.330Z,1024.66
2018-03-16T07:15:48.319Z,1024.71
2018-03-16T07:16:48.299Z,1024.73
2018-03-16T07:17:48.286Z,1024.85
2018-03-16T07:18:48.271Z,1024.89
2018-03-16T07:19:48.257Z,1024.81
2018-03-16T07:20:48.241Z,1024.81
2018-03-16T07:21:48.227Z,1024.93
2018-03-16T07:22:48.214Z,1025.08
2018-03-16T07:23:48.198Z,1024.92
2018-03-16T07:24:48.184Z,1024.9
2018-03-16T07:25:48.168Z,1024.8
2018-03-16T07:26:48.154Z,1024.77
2018-03-16T07:27:48.138Z,1024.72
2018-03-16T07:28:48.124Z,1024.77
2018-03-16T07:29:48.152Z,1024.82
2018-03-16T07:30:48.096Z,1024.77
2018-03-16T07:31:48.080Z,1024.91
2018-03-16T07:32:48.112Z,1024.76
2018-03-16T07:33:48.053Z,1024.79
2018-03-16T07:34:48.037Z,1024.75
2018-03-16T07:35:48.022Z,1024.75
2018-03-16T07:36:48.007Z,1024.81
2018-03-16T07:37:47.993Z,1024.76
2018-03-16T07:38:47.979Z,1024.73
2018-03-16T07:39:47.964Z,1024.73
2018-03-16T07:40:47.976Z,1024.61
2018-03-16T07:41:47.935Z,1024.7
2018-03-16T07:42:47.964Z,1024.77
2018-03-16T07:43:47.906Z,1024.88
2018-03-16T07:44:47.892Z,1024.67
2018-03-16T07:45:47.877Z,1024.79
2018-03-16T07:46:47.863Z,1024.8
2018-03-16T07:47:47.850Z,1024.72
2018-03-16T07:48:47.838Z,1024.72
2018-03-16T07:49:47.817Z,1024.65
2018-03-16T07:50:47.804Z,1024.79
2018-03-16T07:51:47.794Z,1024.73
2018-03-16T07:52:47.775Z,1024.84
2018-03-16T07:53:47.763Z,1024.76
2018-03-16T07:54:47.746Z,1024.98
2018-03-16T07:55:47.758Z,1024.79
2018-03-16T07:56:47.716Z,1024.78
2018-03-16T07:57:47.702Z,1024.8
2018-03-16T07:58:47.687Z,1024.83
2018-03-16T07:59:47.689Z,1024.76
2018-03-16T08:00:47.658Z,1024.82
2018-03-16T08:01:47.643Z,1024.78
2018-03-16T08:02:47.630Z,1024.73
2018-03-16T08:03:47.617Z,1024.75
2018-03-16T08:04:47.599Z,1024.82
2018-03-16T08:05:47.586Z,1024.95
2018-03-16T08:06:47.572Z,1024.94
2018-03-16T08:07:47.555Z,1024.73
2018-03-16T08:08:47.584Z,1024.79
2018-03-16T08:09:47.527Z,1024.74
2018-03-16T08:10:47.512Z,1024.9
2018-03-16T08:11:47.499Z,1024.72
2018-03-16T08:12:47.483Z,1024.71
2018-03-16T08:13:47.469Z,1024.7
2018-03-16T08:14:47.458Z,1024.65
2018-03-16T08:15:47.445Z,1024.7
2018-03-16T08:16:47.426Z,1024.68
2018-03-16T08:17:47.412Z,1024.86
2018-03-16T08:18:47.395Z,1024.77
2018-03-16T08:19:47.381Z,1024.68
2018-03-16T08:20:47.368Z,1024.75
2018-03-16T08:21:47.351Z,1024.77
2018-03-16T08:22:47.338Z,1024.72
2018-03-16T08:23:47.323Z,1024.92
2018-03-16T08:24:47.309Z,1024.86
2018-03-16T08:25:47.294Z,1024.92
2018-03-16T08:26:47.278Z,1024.92
2018-03-16T08:27:47.264Z,1024.85
2018-03-16T08:28:47.251Z,1024.74
2018-03-16T08:29:47.236Z,1024.82
2018-03-16T08:30:47.221Z,1024.92
2018-03-16T08:31:47.207Z,1024.85
2018-03-16T08:32:47.191Z,1024.88
2018-03-16T08:33:47.176Z,1024.89
2018-03-16T08:34:47.164Z,1024.87
2018-03-16T08:35:47.150Z,1024.82
2018-03-16T08:36:47.133Z,1024.92
2018-03-16T08:37:47.119Z,1024.88
2018-03-16T08:38:47.104Z,1024.88
2018-03-16T08:39:47.089Z,1024.97
2018-03-16T08:40:47.075Z,1024.92
2018-03-16T08:41:47.061Z,1024.98
2018-03-16T08:42:47.046Z,1024.98
2018-03-16T08:43:47.031Z,1024.98
2018-03-16T08:44:47.017Z,1024.93
2018-03-16T08:45:47.002Z,1025.06
2018-03-16T08:46:46.988Z,1024.92
2018-03-16T08:47:46.971Z,1025.37
2018-03-16T08:48:46.957Z,1025.16
2018-03-16T08:49:46.969Z,1025.06
2018-03-16T08:50:46.928Z,1025.14
2018-03-16T08:51:46.912Z,1025.1
2018-03-16T08:52:46.898Z,1025.06
2018-03-16T08:53:46.885Z,1025.12
2018-03-16T08:54:46.868Z,1025.09
2018-03-16T08:55:46.859Z,1025.02
2018-03-16T08:56:46.840Z,1025
2018-03-16T08:57:46.826Z,1025.06
2018-03-16T08:58:46.810Z,1025.06
2018-03-16T08:59:46.800Z,1025.13
2018-03-16T09:00:46.782Z,1025.02
2018-03-16T09:01:46.766Z,1025.18
2018-03-16T09:02:46.752Z,1025.18
2018-03-16T09:03:46.737Z,1025.11
2018-03-16T09:04:46.724Z,1025.23
2018-03-16T09:05:46.707Z,1025.15
2018-03-16T09:06:46.694Z,1025.18
2018-03-16T09:07:46.678Z,1025.06
2018-03-16T09:08:46.681Z,1025.22
2018-03-16T09:09:46.650Z,1025.18
2018-03-16T09:10:46.644Z,1025.21
2018-03-16T09:11:46.620Z,1025.26
2018-03-16T09:12:46.606Z,1025.08
2018-03-16T09:13:46.590Z,1025.12
2018-03-16T09:14:46.577Z,1025.2
2018-03-16T09:15:46.561Z,1025.07
2018-03-16T09:16:46.545Z,1025.07
2018-03-16T09:17:46.533Z,1025.23
2018-03-16T09:18:46.767Z,1025.07
2018-03-16T09:19:46.514Z,1025.16
2018-03-16T09:20:46.495Z,1025.16
2018-03-16T09:21:46.473Z,1025.32
2018-03-16T09:22:46.458Z,1025.23
2018-03-16T09:23:46.442Z,1025.42
2018-03-16T09:24:46.429Z,1025.13
2018-03-16T09:25:46.414Z,1025.26
2018-03-16T09:26:46.400Z,1025.3
2018-03-16T09:27:46.385Z,1025.14
2018-03-16T09:28:46.369Z,1025.5
2018-03-16T09:29:46.411Z,1025.56
2018-03-16T09:30:46.350Z,1025.27
2018-03-16T09:31:46.327Z,1025.27
2018-03-16T09:32:46.312Z,1025.59
2018-03-16T09:33:46.299Z,1025.23
2018-03-16T09:34:46.281Z,1025.39
2018-03-16T09:35:46.268Z,1025.48
2018-03-16T09:36:46.251Z,1025.42
2018-03-16T09:37:46.238Z,1025.44
2018-03-16T09:38:46.221Z,1025.3
2018-03-16T09:39:46.211Z,1025.37
2018-03-16T09:40:46.195Z,1025.34
2018-03-16T09:41:46.185Z,1025.31
2018-03-16T09:42:46.163Z,1025.55
2018-03-16T09:43:46.149Z,1025.26
2018-03-16T09:44:46.134Z,1025.2
2018-03-16T09:45:46.119Z,1025.27
2018-03-16T09:46:46.114Z,1025.11
2018-03-16T09:47:46.090Z,1025.09
2018-03-16T09:48:46.075Z,1025.11
2018-03-16T09:49:46.062Z,1025.34
2018-03-16T09:50:46.045Z,1025.19
2018-03-16T09:51:46.033Z,1025.23
2018-03-16T09:52:46.017Z,1025.15
2018-03-16T09:53:46.002Z,1025.12
2018-03-16T09:54:45.985Z,1025.18
2018-03-16T09:55:45.970Z,1025.16
2018-03-16T09:56:45.968Z,1025.09
2018-03-16T09:57:45.941Z,1025.22
2018-03-16T09:58:45.930Z,1025.15
2018-03-16T09:59:45.913Z,1025.2
2018-03-16T10:00:45.895Z,1025.32
2018-03-16T10:01:45.881Z,1025.18
2018-03-16T10:02:45.875Z,1025.36
2018-03-16T10:03:45.852Z,1025.5
2018-03-16T10:04:45.839Z,1025.45
2018-03-16T10:05:45.829Z,1025.27
2018-03-16T10:06:45.810Z,1025.34
2018-03-16T10:07:45.793Z,1025.21
2018-03-16T10:08:45.779Z,1025.18
2018-03-16T10:09:45.766Z,1025.15
2018-03-16T10:10:45.752Z,1025.19
2018-03-16T10:11:45.736Z,1025.15
2018-03-16T10:12:45.721Z,1025.16
2018-03-16T10:13:45.706Z,1025.14
2018-03-16T10:14:45.691Z,1025.28
2018-03-16T10:15:45.677Z,1025.28
2018-03-16T10:16:45.670Z,1025.11
2018-03-16T10:17:45.651Z,1025.18
2018-03-16T10:18:45.632Z,1025.19
2018-03-16T10:19:45.617Z,1025.2
2018-03-16T10:20:45.603Z,1025.2
2018-03-16T10:21:45.593Z,1025.75
2018-03-16T10:22:45.577Z,1025.33
2018-03-16T10:23:45.559Z,1025.3
2018-03-16T10:24:45.548Z,1025.38
2018-03-16T10:25:45.528Z,1025.43
2018-03-16T10:26:45.518Z,1025.59
2018-03-16T10:27:45.500Z,1025.37
2018-03-16T10:28:45.486Z,1025.48
2018-03-16T10:29:45.470Z,1025.43
2018-03-16T10:30:45.458Z,1025.53
2018-03-16T10:31:45.442Z,1025.68
2018-03-16T10:32:45.426Z,1025.51
2018-03-16T10:33:45.411Z,1025.58
2018-03-16T10:34:45.395Z,1025.57
2018-03-16T10:35:45.382Z,1025.62
2018-03-16T10:36:45.369Z,1025.66
2018-03-16T10:37:45.353Z,1025.68
2018-03-16T10:38:45.337Z,1025.96
2018-03-16T10:39:45.321Z,1025.64
2018-03-16T10:40:45.306Z,1025.61
2018-03-16T10:41:45.291Z,1025.77
2018-03-16T10:42:45.306Z,1025.86
2018-03-16T10:43:45.266Z,1025.69
2018-03-16T10:44:45.253Z,1025.82
2018-03-16T10:45:45.247Z,1025.68
2018-03-16T10:46:45.218Z,1025.72
2018-03-16T10:47:45.200Z,1025.68
2018-03-16T10:48:45.185Z,1025.78
2018-03-16T10:49:45.173Z,1025.84
2018-03-16T10:50:45.156Z,1025.7
2018-03-16T10:51:45.141Z,1025.63
2018-03-16T10:52:45.125Z,1025.63
2018-03-16T10:53:45.111Z,1025.71
2018-03-16T10:54:45.105Z,1025.58
2018-03-16T10:55:45.085Z,1025.65
2018-03-16T10:56:45.065Z,1025.44
2018-03-16T10:57:45.051Z,1025.5
2018-03-16T10:58:45.035Z,1025.45
2018-03-16T10:59:45.019Z,1025.53
2018-03-16T11:00:45.006Z,1025.61
2018-03-16T11:01:45.010Z,1025.55
2018-03-16T11:02:44.974Z,1025.53
2018-03-16T11:03:44.958Z,1025.49
2018-03-16T11:04:44.944Z,1025.46
2018-03-16T11:05:44.933Z,1025.46
2018-03-16T11:06:44.913Z,1025.53
2018-03-16T11:07:44.901Z,1025.5
2018-03-16T11:08:44.883Z,1025.5
2018-03-16T11:09:44.872Z,1025.63
2018-03-16T11:10:44.853Z,1025.4
2018-03-16T11:11:44.838Z,1025.53
2018-03-16T11:12:44.823Z,1025.52
2018-03-16T11:13:45.011Z,1025.58
2018-03-16T11:14:44.793Z,1025.68
2018-03-16T11:15:44.785Z,1025.59
2018-03-16T11:16:44.763Z,1025.58
2018-03-16T11:17:44.746Z,1025.63
2018-03-16T11:18:44.733Z,1025.48
2018-03-16T11:19:44.717Z,1025.5
2018-03-16T11:20:44.701Z,1025.55
2018-03-16T11:21:44.687Z,1025.46
2018-03-16T11:22:44.670Z,1025.56
2018-03-16T11:23:44.657Z,1025.58
2018-03-16T11:24:44.641Z,1025.48
2018-03-16T11:25:44.626Z,1025.53
2018-03-16T11:26:44.611Z,1025.46
2018-03-16T11:27:44.598Z,1025.49
2018-03-16T11:28:44.583Z,1025.48
2018-03-16T11:29:44.564Z,1025.81
2018-03-16T11:30:44.551Z,1025.43
2018-03-16T11:31:44.538Z,1025.39
2018-03-16T11:32:44.521Z,1025.39
2018-03-16T11:33:44.505Z,1025.46
2018-03-16T11:34:44.489Z,1025.5
2018-03-16T11:35:44.477Z,1025.44
2018-03-16T11:36:44.470Z,1025.49
2018-03-16T11:37:44.445Z,1025.62
2018-03-16T11:38:44.429Z,1025.56
2018-03-16T11:39:44.415Z,1025.42
2018-03-16T11:40:44.406Z,1025.57
2018-03-16T11:41:44.391Z,1025.45
2018-03-16T11:42:44.371Z,1025.37
2018-03-16T11:43:44.361Z,1025.42
2018-03-16T11:44:44.342Z,1025.35
2018-03-16T11:45:44.324Z,1025.31
2018-03-16T11:46:44.310Z,1025.32
2018-03-16T11:47:44.305Z,1025.32
2018-03-16T11:48:44.283Z,1025.26
2018-03-16T11:49:44.276Z,1025.27
2018-03-16T11:50:44.249Z,1025.17
2018-03-16T11:51:44.235Z,1025.21
2018-03-16T11:52:44.222Z,1025.13
2018-03-16T11:53:44.209Z,1025.18
2018-03-16T11:54:44.192Z,1025.04
2018-03-16T11:55:44.174Z,1025.04
2018-03-16T11:56:44.161Z,1025.07
2018-03-16T11:57:44.144Z,1025.11
2018-03-16T11:58:44.128Z,1025.03
2018-03-16T11:59:44.114Z,1025.07
2018-03-16T12:00:44.099Z,1025.08
2018-03-16T12:01:44.085Z,1025.18
2018-03-16T12:02:44.070Z,1025.13
2018-03-16T12:03:44.054Z,1025
2018-03-16T12:04:44.040Z,1025.07
2018-03-16T12:05:44.031Z,1024.99
2018-03-16T12:06:44.014Z,1024.98
2018-03-16T12:07:43.995Z,1024.98
2018-03-16T12:08:43.987Z,1025.02